KELD/ELD METAR and TAF weather

Enter ICAO airport designator
Station Type Date Time Source
KELD METAR 2019/04/24 21:53 UTC NOAA

KELD 242153Z AUTO 17005KT 10SM -RA BKN110 23/19 A2984 RMK AO2 RAB31 SLP102 P0000 T02280189


Station Type Date Time Source
KELD Decoded METAR 2019/04/24 21:53 UTC NOAA

SOUTH ARKANSAS REGIONAL, AR, United States (KELD) 33-13N 092-49W 81M
Apr 24, 2019 - 05:53 PM EDT / 2019.04.24 2153 UTC
Wind: from the S (170 degrees) at 6 MPH (5 KT):0
Visibility: 10 mile(s):0
Sky conditions: mostly cloudy
Weather: light rain
Precipitation last hour: A trace
Temperature: 73.0 F (22.8 C)
Dew Point: 66.0 F (18.9 C)
Relative Humidity: 78%
Pressure (altimeter): 29.84 in. Hg (1010 hPa)
ob: KELD 242153Z AUTO 17005KT 10SM -RA BKN110 23/19 A2984 RMK AO2 RAB31 SLP102 P0000 T02280189
cycle: 22

Station Type Date Time Source
KELD TAF 2019/04/24 18:27 UTC NOAA

TAF KELD 241725Z 2418/2518 19009G15KT P6SM BKN035 OVC250
FM250000 16005KT P6SM OVC040
FM250600 18009G16KT P6SM VCTS OVC015CB
FM250800 19010G18KT 6SM -TSRA OVC015CB
FM251200 20010KT 4SM -RA OVC015
FM251500 27010G16KT P6SM OVC025

Example: see airport list